Atkinson, North Carolina
Current Conditions -  °F | °C
As of 4:53 AM on Sunday 25 Jan 2015 (Local Time) from KILM Reporting Station
Clear Clear  
Wind Chill:   Ceiling: Unl
Heat Index:   Visibility: 10mi
Dew Point:   Wind: 5mph
Humidity: 96%   Direction: 260°W
Pressure: 29.92"   Gusts: NA
Location:  34.53°N, 78.17°W
Report Text: KILM 250953Z AUTO 26004KT 10SM CLR 03/02 A2992 RMK AO2 SLP130 T00280022
Loading
Personal Weather Stations






























Interactive Weather Map New forecast layout! Learn more

10-Day Weather Forecast

Advertisements
Track Severe Weather on mobile